Time;durP1;ratioP1;P1;durP2;ratioP2;P2;SDS_P1;SDS_P2;PMS_P1;PMS_P2;Temp;Humidity;BMP_temperature;BMP_pressure;BME280_temperature;BME280_humidity;BME280_pressure;Samples;Min_cycle;Max_cycle;Signal;HPM_P1;HPM_P2
2022/10/13 00:00:22;;;;;;;29.52;16.13;;;;;;;11.98;66.79;96005.50;5088832;28;20075;-79
2022/10/13 00:02:47;;;;;;;34.55;15.60;;;;;;;11.98;67.03;96008.16;5096823;28;20074;-79
2022/10/13 00:05:13;;;;;;;33.83;16.33;;;;;;;11.70;66.86;95968.72;5095512;28;20028;-79
2022/10/13 00:07:38;;;;;;;29.58;16.15;;;;;;;11.80;66.75;95995.34;5096419;28;20047;-79
2022/10/13 00:10:04;;;;;;;28.95;16.05;;;;;;;11.41;66.37;95927.69;5077878;28;20032;-79
2022/10/13 00:12:29;;;;;;;28.27;16.17;;;;;;;10.97;66.75;95859.03;5076196;28;20043;-78
2022/10/13 00:14:57;;;;;;;27.90;16.05;;;;;;;11.13;67.02;95892.56;5094131;28;20052;-79
2022/10/13 00:17:23;;;;;;;33.35;16.98;;;;;;;10.94;67.11;95856.88;5095492;28;20501;-78
2022/10/13 00:19:48;;;;;;;29.15;15.10;;;;;;;11.36;67.17;95933.00;5095255;28;20071;-79
2022/10/13 00:22:13;;;;;;;31.85;16.75;;;;;;;11.32;67.33;95914.13;5095219;28;20161;-78
2022/10/13 00:24:39;;;;;;;25.40;15.65;;;;;;;11.57;66.81;95946.09;5075519;28;20117;-78
2022/10/13 00:27:04;;;;;;;29.55;15.73;;;;;;;11.82;67.05;95995.91;5091936;28;20054;-78
2022/10/13 00:29:30;;;;;;;28.13;15.57;;;;;;;11.65;66.79;95963.38;5093745;28;20040;-78
2022/10/13 00:31:55;;;;;;;26.13;16.05;;;;;;;11.70;67.06;95978.53;5105917;28;20382;-78
2022/10/13 00:34:20;;;;;;;27.70;16.02;;;;;;;11.37;67.28;95935.38;5088059;28;20046;-78
2022/10/13 00:36:46;;;;;;;27.92;16.17;;;;;;;11.31;67.10;95922.34;5107659;28;20044;-78
2022/10/13 00:39:12;;;;;;;31.35;15.70;;;;;;;11.18;67.03;95905.03;5091306;28;20052;-79
2022/10/13 00:41:37;;;;;;;32.45;15.45;;;;;;;11.37;67.38;95932.72;5090315;28;20047;-79
2022/10/13 00:44:05;;;;;;;29.17;15.82;;;;;;;11.66;67.34;95975.63;5105037;28;20044;-79
2022/10/13 00:46:38;;;;;;;27.83;15.23;;;;;;;11.35;67.28;95942.03;5077083;28;20039;-79
2022/10/13 00:49:11;;;;;;;24.83;14.00;;;;;;;11.06;67.67;95893.84;5078398;28;20076;-79
2022/10/13 00:51:43;;;;;;;29.25;14.82;;;;;;;10.98;67.40;95873.91;5095784;28;20063;-79
2022/10/13 00:54:13;;;;;;;28.50;14.23;;;;;;;11.53;67.27;95976.06;5096680;28;20048;-79
2022/10/13 00:56:39;;;;;;;24.90;14.82;;;;;;;11.21;67.93;95926.53;5078446;28;20073;-79
2022/10/13 00:59:10;;;;;;;29.48;15.65;;;;;;;11.07;67.59;95890.09;5095081;28;20114;-79
2022/10/13 01:01:36;;;;;;;28.17;15.35;;;;;;;11.53;67.83;95962.78;5076675;28;20052;-79
2022/10/13 01:04:02;;;;;;;27.05;14.55;;;;;;;11.06;67.63;95905.22;5094163;28;20040;-79
2022/10/13 01:06:28;;;;;;;27.80;14.82;;;;;;;10.87;67.84;95880.22;5076294;28;20391;-79
2022/10/13 01:08:54;;;;;;;25.60;14.50;;;;;;;11.45;67.82;95966.75;5077362;28;20051;-79
2022/10/13 01:11:32;;;;;;;26.05;15.13;;;;;;;11.02;67.46;95898.06;5096121;28;20036;-77
2022/10/13 01:14:15;;;;;;;27.75;14.95;;;;;;;11.51;67.65;95980.88;5078473;28;20048;-77
2022/10/13 01:16:59;;;;;;;32.08;16.48;;;;;;;11.50;67.75;95979.28;5096014;28;20079;-77
2022/10/13 01:19:35;;;;;;;29.98;15.25;;;;;;;10.76;67.58;95873.22;5079031;28;20402;-77
2022/10/13 01:22:07;;;;;;;28.58;15.93;;;;;;;11.42;68.02;95974.44;5076060;28;20040;-77
2022/10/13 01:24:45;;;;;;;27.35;15.85;;;;;;;11.42;67.60;95975.25;5074906;28;20046;-77
2022/10/13 01:27:37;;;;;;;29.40;15.20;;;;;;;11.38;68.21;95973.34;5072539;28;20051;-77
2022/10/13 01:30:17;;;;;;;27.65;16.80;;;;;;;11.02;67.60;95914.78;5072432;28;20067;-77
2022/10/13 01:32:55;;;;;;;32.13;16.85;;;;;;;11.26;68.29;95973.56;5091034;28;20505;-77
2022/10/13 01:35:48;;;;;;;35.72;19.42;;;;;;;11.26;68.23;95972.78;5070253;28;20048;-77
2022/10/13 01:38:22;;;;;;;34.33;17.10;;;;;;;11.34;68.45;95970.44;5090601;28;20086;-77
2022/10/13 01:40:59;;;;;;;38.22;18.90;;;;;;;11.35;68.74;95976.53;5093007;28;20044;-77
2022/10/13 01:43:35;;;;;;;41.33;19.55;;;;;;;11.15;68.43;95948.81;5074343;28;20189;-77
2022/10/13 01:46:17;;;;;;;41.70;20.42;;;;;;;10.86;68.51;95909.66;5074739;28;20040;-77
2022/10/13 01:48:45;;;;;;;39.38;19.58;;;;;;;10.71;69.02;95891.78;5093155;28;20445;-77
2022/10/13 01:51:15;;;;;;;37.22;20.13;;;;;;;11.29;69.03;95973.03;5074006;28;20114;-77
2022/10/13 01:53:42;;;;;;;42.10;22.60;;;;;;;11.30;68.63;95974.66;5088598;28;20044;-76
2022/10/13 01:56:08;;;;;;;48.60;21.92;;;;;;;10.89;68.69;95909.16;5071786;28;20051;-76
2022/10/13 01:58:35;;;;;;;38.85;20.90;;;;;;;10.83;68.75;95898.47;5071835;28;20032;-76
2022/10/13 02:01:11;;;;;;;39.83;21.50;;;;;;;11.33;69.32;95971.50;5071636;28;20101;-76
2022/10/13 02:04:05;;;;;;;47.05;21.35;;;;;;;11.32;69.20;95966.44;5089839;28;20036;-77
2022/10/13 02:06:58;;;;;;;38.15;20.75;;;;;;;10.86;69.01;95886.56;5090273;28;20497;-77
2022/10/13 02:09:40;;;;;;;40.72;21.73;;;;;;;11.03;68.75;95915.59;5098059;28;20048;-76
2022/10/13 02:12:10;;;;;;;40.00;21.70;;;;;;;11.33;69.22;95960.88;5070935;28;20521;-76
2022/10/13 02:14:39;;;;;;;37.70;20.37;;;;;;;10.57;68.46;95842.91;5089974;28;20032;-76
2022/10/13 02:17:05;;;;;;;39.45;22.13;;;;;;;11.34;68.72;95973.09;5071976;28;20035;-77
2022/10/13 02:19:36;;;;;;;38.90;21.13;;;;;;;11.30;68.76;95960.56;5089950;28;20036;-77
2022/10/13 02:22:03;;;;;;;39.15;20.65;;;;;;;11.05;69.13;95913.47;5071779;28;20052;-77
2022/10/13 02:24:29;;;;;;;50.10;21.67;;;;;;;10.98;68.59;95905.75;5071591;28;20532;-77
2022/10/13 02:26:55;;;;;;;41.72;21.52;;;;;;;10.76;69.22;95873.22;5071570;28;20040;-77
2022/10/13 02:29:20;;;;;;;41.45;21.70;;;;;;;10.15;68.82;95773.94;5089850;28;20040;-77
2022/10/13 02:31:46;;;;;;;40.75;21.75;;;;;;;10.30;69.22;95796.06;5089318;28;20035;-77
2022/10/13 02:34:13;;;;;;;48.47;22.35;;;;;;;10.89;69.39;95901.19;5071595;28;20074;-77
2022/10/13 02:36:39;;;;;;;43.70;20.23;;;;;;;10.62;69.45;95862.28;5089806;28;20040;-77
2022/10/13 02:39:06;;;;;;;39.63;22.98;;;;;;;10.96;70.12;95944.22;5072242;28;20494;-77
2022/10/13 02:41:32;;;;;;;38.97;21.25;;;;;;;10.65;70.49;95911.38;5093374;28;20047;-77
2022/10/13 02:43:57;;;;;;;41.05;22.40;;;;;;;10.79;70.05;95912.53;5074718;28;20035;-76
2022/10/13 02:46:23;;;;;;;42.28;21.58;;;;;;;10.76;70.16;95897.91;5073504;28;20114;-78
2022/10/13 02:48:48;;;;;;;37.03;21.67;;;;;;;10.61;70.02;95871.28;5072653;28;20055;-76
2022/10/13 02:51:14;;;;;;;42.00;21.20;;;;;;;10.75;70.10;95896.34;5091121;28;20111;-77
2022/10/13 02:53:39;;;;;;;36.65;21.58;;;;;;;10.75;70.04;95891.03;5072196;28;20088;-76
2022/10/13 02:56:05;;;;;;;43.67;22.02;;;;;;;10.54;69.83;95865.41;5089721;28;20063;-76
2022/10/13 02:58:30;;;;;;;39.92;21.10;;;;;;;10.77;69.90;95893.41;5098699;28;20431;-76
2022/10/13 03:01:08;;;;;;;40.17;22.10;;;;;;;10.97;69.75;95932.53;5090660;28;20530;-76
2022/10/13 03:03:33;;;;;;;43.08;19.98;;;;;;;11.00;69.79;95932.00;5090533;28;20055;-76
2022/10/13 03:05:59;;;;;;;37.50;20.75;;;;;;;10.50;69.96;95853.75;5090768;28;20494;-77
2022/10/13 03:08:25;;;;;;;40.22;19.63;;;;;;;10.98;69.95;95926.97;5108347;28;20039;-76
2022/10/13 03:10:51;;;;;;;35.40;21.25;;;;;;;10.97;69.94;95924.59;5108857;28;20051;-77
2022/10/13 03:13:16;;;;;;;35.95;20.02;;;;;;;10.93;70.25;95926.13;5089857;28;20494;-77
2022/10/13 03:15:42;;;;;;;44.20;20.95;;;;;;;10.97;70.07;95922.72;5089635;28;20428;-77
2022/10/13 03:18:07;;;;;;;36.00;20.48;;;;;;;9.69;69.59;95723.28;5089124;28;20047;-77
2022/10/13 03:20:32;;;;;;;45.13;21.30;;;;;;;10.60;69.84;95874.22;5089129;28;20044;-77
2022/10/13 03:22:58;;;;;;;40.92;20.75;;;;;;;10.60;70.00;95868.94;5089848;28;20032;-77
2022/10/13 03:25:23;;;;;;;42.42;20.15;;;;;;;10.42;70.11;95859.53;5088986;28;20579;-77
2022/10/13 03:27:49;;;;;;;37.90;19.90;;;;;;;9.99;70.17;95789.75;5084138;28;20048;-77
2022/10/13 03:30:14;;;;;;;38.08;19.75;;;;;;;10.97;70.09;95938.66;5088907;28;20039;-77
2022/10/13 03:32:40;;;;;;;36.00;19.40;;;;;;;10.67;70.03;95885.41;5088983;28;20024;-77
2022/10/13 03:35:06;;;;;;;28.30;17.75;;;;;;;10.34;69.97;95836.94;5080339;28;20507;-77
2022/10/13 03:37:31;;;;;;;29.90;16.65;;;;;;;10.14;70.38;95841.28;5089285;28;20032;-77
2022/10/13 03:39:57;;;;;;;35.70;18.67;;;;;;;10.62;70.96;95914.53;5089427;28;20130;-77
2022/10/13 03:42:22;;;;;;;30.02;16.40;;;;;;;10.58;71.59;95924.88;5074972;28;20062;-77
2022/10/13 03:44:48;;;;;;;32.40;17.17;;;;;;;10.79;71.12;95937.22;5090016;28;20094;-77
2022/10/13 03:47:13;;;;;;;29.27;16.58;;;;;;;10.57;70.55;95895.94;5107895;28;20038;-77
2022/10/13 03:49:39;;;;;;;27.52;16.45;;;;;;;10.43;70.91;95895.59;5110687;28;20043;-77
2022/10/13 03:52:05;;;;;;;35.80;15.77;;;;;;;10.13;71.26;95845.78;5090992;28;20032;-77
2022/10/13 03:54:30;;;;;;;30.65;16.30;;;;;;;10.79;71.22;95937.22;5109672;28;20071;-79
2022/10/13 03:56:56;;;;;;;38.50;17.92;;;;;;;10.61;71.33;95919.03;5092053;28;20395;-78
2022/10/13 03:59:21;;;;;;;33.40;17.27;;;;;;;10.80;70.51;95930.06;5092460;28;20499;-78
2022/10/13 04:01:46;;;;;;;35.28;17.80;;;;;;;10.83;70.94;95932.97;5105568;28;20048;-78
2022/10/13 04:04:12;;;;;;;33.75;17.08;;;;;;;10.82;70.33;95930.59;5108169;28;20031;-78
2022/10/13 04:06:38;;;;;;;37.03;18.35;;;;;;;10.46;70.75;95868.56;5090298;28;20035;-78
2022/10/13 04:09:03;;;;;;;36.85;18.42;;;;;;;10.84;70.67;95928.47;5090212;28;20129;-78
2022/10/13 04:11:29;;;;;;;40.47;18.27;;;;;;;10.49;70.95;95865.41;5107314;28;20040;-78
2022/10/13 04:13:56;;;;;;;35.70;18.08;;;;;;;10.51;70.74;95865.16;5106206;28;20040;-78
2022/10/13 04:16:28;;;;;;;35.58;18.20;;;;;;;10.85;70.84;95919.47;5089301;28;20028;-78
2022/10/13 04:19:02;;;;;;;40.28;18.30;;;;;;;10.39;70.29;95854.72;5075328;28;20506;-78
2022/10/13 04:21:32;;;;;;;33.78;17.23;;;;;;;10.20;70.63;95843.75;5079545;28;20070;-78
2022/10/13 04:24:00;;;;;;;30.08;17.50;;;;;;;10.75;70.63;95919.41;5097751;28;20493;-78
2022/10/13 04:26:28;;;;;;;26.98;17.25;;;;;;;10.66;70.78;95911.13;5056188;22;20060;-87
2022/10/13 04:28:54;;;;;;;36.45;18.15;;;;;;;10.14;71.30;95839.44;5033875;28;20095;-87
2022/10/13 04:31:21;;;;;;;34.22;17.38;;;;;;;10.68;70.86;95910.88;5036819;28;20053;-87
2022/10/13 04:33:47;;;;;;;35.83;18.77;;;;;;;10.23;70.85;95829.16;5019220;28;20045;-87
2022/10/13 04:36:14;;;;;;;36.65;19.17;;;;;;;10.37;70.88;95847.03;5024451;28;20534;-87
2022/10/13 04:38:41;;;;;;;35.17;18.00;;;;;;;10.32;70.83;95857.59;5029457;28;20040;-87
2022/10/13 04:41:07;;;;;;;34.55;19.23;;;;;;;8.78;70.65;95599.00;5026657;28;20066;-87
2022/10/13 04:43:34;;;;;;;37.63;19.50;;;;;;;10.68;70.87;95892.31;5025078;28;20036;-87
2022/10/13 04:46:01;;;;;;;35.20;18.02;;;;;;;10.63;71.19;95874.50;5044934;28;20037;-88
2022/10/13 04:48:27;;;;;;;36.60;20.13;;;;;;;10.62;71.28;95895.97;5031553;28;20048;-88
2022/10/13 04:51:13;;;;;;;37.33;21.10;;;;;;;9.09;71.79;95703.22;5024982;28;20096;-87
2022/10/13 04:53:39;;;;;;;48.95;22.23;;;;;;;10.34;72.21;95875.91;5026257;28;20045;-87
2022/10/13 04:56:08;;;;;;;44.72;21.98;;;;;;;10.74;71.87;95931.09;5025507;28;20479;-86
2022/10/13 04:58:35;;;;;;;60.72;33.28;;;;;;;10.28;72.11;95872.44;5035801;28;20060;-87
2022/10/13 05:01:02;;;;;;;44.90;27.05;;;;;;;10.41;72.08;95892.41;5025310;28;20187;-87
2022/10/13 05:03:28;;;;;;;57.08;31.73;;;;;;;10.76;72.07;95931.59;5028869;28;20153;-86
2022/10/13 05:05:54;;;;;;;50.25;27.95;;;;;;;10.49;71.77;95885.81;5043573;28;20125;-87
2022/10/13 05:08:20;;;;;;;60.08;29.85;;;;;;;10.40;72.00;95867.72;5035377;28;20037;-85
2022/10/13 05:11:00;;;;;;;54.05;27.50;;;;;;;10.44;72.08;95878.63;5042567;28;20434;-85
2022/10/13 05:13:27;;;;;;;44.88;26.65;;;;;;;10.29;71.72;95865.28;5026472;28;20159;-87
2022/10/13 05:16:15;;;;;;;51.45;29.05;;;;;;;10.77;72.18;95941.16;5026404;28;20033;-88
2022/10/13 05:18:41;;;;;;;47.03;25.20;;;;;;;10.72;72.16;95962.38;5005428;28;20053;-88
2022/10/13 05:21:12;;;;;;;58.08;25.50;;;;;;;9.28;71.54;95708.97;5046032;28;20071;-87
2022/10/13 05:23:38;;;;;;;57.58;28.05;;;;;;;9.16;71.92;95669.41;5019021;28;20199;-87
2022/10/13 05:26:05;;;;;;;63.42;27.67;;;;;;;10.73;72.15;95942.75;5022169;28;20546;-87
2022/10/13 05:28:31;;;;;;;55.05;27.52;;;;;;;10.11;71.82;95855.81;5016167;28;20076;-87
2022/10/13 05:30:56;;;;;;;57.60;29.77;;;;;;;10.52;71.82;95894.06;5015933;28;20072;-87
2022/10/13 05:33:22;;;;;;;65.32;30.95;;;;;;;11.03;71.90;95960.72;5018119;28;20491;-87
2022/10/13 05:35:47;;;;;;;47.95;26.52;;;;;;;9.03;71.69;95661.09;5021216;28;21074;-88
2022/10/13 05:38:13;;;;;;;52.47;28.20;;;;;;;11.06;71.75;95966.28;5016583;28;20037;-87
2022/10/13 05:40:38;;;;;;;48.38;26.88;;;;;;;9.09;71.75;95652.16;5013721;28;20055;-86
2022/10/13 05:43:04;;;;;;;53.95;29.05;;;;;;;7.79;71.53;95470.91;5031147;28;20094;-87
2022/10/13 05:45:35;;;;;;;60.20;27.95;;;;;;;11.18;71.99;95984.69;5025486;28;20046;-87
2022/10/13 05:48:00;;;;;;;54.20;29.08;;;;;;;9.30;71.56;95714.81;5019498;28;20037;-88
2022/10/13 05:50:27;;;;;;;55.95;29.27;;;;;;;10.22;72.73;95876.06;5017868;28;20048;-87
2022/10/13 05:52:52;;;;;;;60.67;29.70;;;;;;;10.58;72.74;95959.34;5032280;28;20030;-87
2022/10/13 05:55:19;;;;;;;77.30;33.28;;;;;;;7.37;72.36;95434.56;5023387;28;20251;-88
2022/10/13 05:57:51;;;;;;;67.00;31.65;;;;;;;9.17;72.75;95723.13;5023288;28;20049;-89
2022/10/13 06:02:56;;;;;;;79.32;33.25;;;;;;;10.71;74.06;95993.41;5017378;28;20061;-87
2022/10/13 06:05:26;;;;;;;66.55;32.90;;;;;;;9.24;73.81;95817.16;5008927;28;20051;-88
2022/10/13 06:07:54;;;;;;;66.50;32.28;;;;;;;9.49;73.82;95787.50;5015711;28;20060;-89
2022/10/13 06:10:20;;;;;;;69.78;34.38;;;;;;;9.60;73.41;95783.91;5018821;28;20041;-86
2022/10/13 06:12:49;;;;;;;76.43;34.13;;;;;;;8.65;73.18;95633.78;5003694;28;20047;-87
2022/10/13 06:15:15;;;;;;;72.63;33.90;;;;;;;10.77;73.49;95960.53;4996066;28;20044;-87
2022/10/13 06:17:40;;;;;;;63.63;32.70;;;;;;;10.71;72.93;95923.63;4998990;28;20037;-87
2022/10/13 06:20:07;;;;;;;76.88;34.42;;;;;;;9.93;72.68;95824.41;5018895;28;20041;-87
2022/10/13 06:22:34;;;;;;;76.40;35.03;;;;;;;10.95;72.88;95963.84;5018049;28;20800;-87
2022/10/13 06:25:00;;;;;;;73.88;33.15;;;;;;;10.59;72.90;95894.66;5004685;28;20040;-87
2022/10/13 06:27:26;;;;;;;75.47;35.92;;;;;;;8.98;73.25;95653.13;5001275;28;20423;-88
2022/10/13 06:29:51;;;;;;;70.63;33.50;;;;;;;10.25;72.83;95827.06;5002402;28;20038;-87
2022/10/13 06:32:16;;;;;;;75.63;34.85;;;;;;;10.21;73.17;95833.94;5002903;28;20061;-86
2022/10/13 06:34:42;;;;;;;67.22;33.45;;;;;;;10.50;74.14;95921.91;5024468;28;20041;-87
2022/10/13 06:37:07;;;;;;;72.93;36.78;;;;;;;10.74;73.95;95929.22;5017542;28;20041;-87
2022/10/13 06:39:33;;;;;;;76.45;36.35;;;;;;;10.96;73.22;95912.38;5003049;28;20037;-86
2022/10/13 06:41:58;;;;;;;72.80;34.28;;;;;;;10.37;72.59;95811.78;5001150;28;20504;-87
2022/10/13 06:44:24;;;;;;;74.13;35.30;;;;;;;11.32;72.38;95974.41;5007050;28;20491;-87
2022/10/13 06:46:49;;;;;;;67.63;34.25;;;;;;;11.32;72.16;95926.59;4997960;28;20038;-87
2022/10/13 06:49:15;;;;;;;76.43;35.83;;;;;;;10.42;72.19;95796.69;4999311;28;20041;-87
2022/10/13 06:51:47;;;;;;;63.42;32.45;;;;;;;11.01;71.65;95891.94;5012901;28;20049;-87
2022/10/13 06:54:12;;;;;;;65.43;32.13;;;;;;;11.34;71.57;95945.72;5008840;28;20128;-86
2022/10/13 06:56:38;;;;;;;66.07;31.55;;;;;;;11.39;71.52;95925.31;4997851;28;20608;-86
2022/10/13 06:59:03;;;;;;;65.65;33.05;;;;;;;10.71;71.51;95820.97;4996769;28;20365;-87
2022/10/13 07:01:29;;;;;;;73.28;33.83;;;;;;;11.53;71.56;95950.31;4994512;28;20050;-87
2022/10/13 07:03:54;;;;;;;70.18;33.55;;;;;;;11.76;71.45;95991.59;4977050;28;20447;-87
2022/10/13 07:06:20;;;;;;;68.07;33.47;;;;;;;11.22;71.15;95895.47;4986036;28;20057;-88
2022/10/13 07:08:55;;;;;;;67.65;33.47;;;;;;;11.29;71.59;95879.34;4978737;28;20056;-88
2022/10/13 07:11:21;;;;;;;64.65;32.65;;;;;;;9.63;71.26;95626.34;5000193;28;20037;-88
2022/10/13 07:13:46;;;;;;;77.35;35.33;;;;;;;10.96;71.71;95838.06;4974371;28;20160;-86
2022/10/13 07:16:12;;;;;;;59.55;32.38;;;;;;;11.56;70.83;95920.59;4995816;28;20041;-86
2022/10/13 07:18:37;;;;;;;69.40;33.53;;;;;;;11.70;70.79;95936.03;4996411;28;20045;-88
2022/10/13 07:21:03;;;;;;;70.60;34.55;;;;;;;11.67;71.04;95936.56;4979828;28;20176;-87
2022/10/13 07:23:32;;;;;;;63.25;33.17;;;;;;;11.80;71.40;95966.13;4982237;28;20076;-88
2022/10/13 07:25:58;;;;;;;73.00;36.80;;;;;;;11.37;71.61;95884.91;4984764;28;20068;-88
2022/10/13 07:28:24;;;;;;;78.65;37.20;;;;;;;11.43;71.15;95899.03;4982265;28;20057;-88
2022/10/13 07:30:50;;;;;;;65.38;33.95;;;;;;;11.70;71.79;95951.97;4991728;28;20092;-88
2022/10/13 07:33:16;;;;;;;67.95;36.05;;;;;;;11.65;71.48;95944.78;5003698;28;20776;-88
2022/10/13 07:35:41;;;;;;;67.93;34.95;;;;;;;10.28;71.67;95747.81;4986171;28;20042;-88
2022/10/13 07:38:07;;;;;;;73.28;34.22;;;;;;;11.72;71.53;95947.19;4985581;28;20041;-88
2022/10/13 07:40:34;;;;;;;64.03;34.40;;;;;;;12.01;71.03;95974.94;5001295;28;20491;-88
2022/10/13 07:43:00;;;;;;;72.32;35.40;;;;;;;9.91;70.56;95635.78;4999824;28;20121;-88
2022/10/13 07:45:26;;;;;;;67.00;34.03;;;;;;;11.66;70.65;95895.91;5004319;28;20801;-88
2022/10/13 07:47:51;;;;;;;76.50;36.88;;;;;;;11.60;70.62;95873.81;4983204;28;20049;-88
2022/10/13 07:50:17;;;;;;;75.07;37.35;;;;;;;11.76;70.63;95890.63;4989712;28;20425;-87
2022/10/13 07:52:42;;;;;;;68.28;35.33;;;;;;;11.74;70.25;95882.16;5002634;28;20526;-88
2022/10/13 07:55:13;;;;;;;65.22;33.03;;;;;;;11.19;69.83;95793.28;4987000;28;20046;-87
2022/10/13 07:57:42;;;;;;;67.15;33.45;;;;;;;10.73;69.55;95736.63;5000547;28;20084;-88
2022/10/13 08:00:11;;;;;;;61.38;32.33;;;;;;;11.43;69.61;95829.97;5000079;28;20504;-86
2022/10/13 08:02:37;;;;;;;63.92;35.17;;;;;;;12.03;69.82;95901.03;5000589;28;20838;-86
2022/10/13 08:05:02;;;;;;;60.35;33.03;;;;;;;11.25;69.51;95762.22;5023685;28;20049;-87
2022/10/13 08:07:28;;;;;;;59.47;33.25;;;;;;;11.22;69.31;95765.38;5021090;28;20052;-87
2022/10/13 08:09:53;;;;;;;60.78;31.75;;;;;;;10.74;68.76;95649.88;5003987;28;20037;-87
2022/10/13 08:12:19;;;;;;;62.20;34.42;;;;;;;11.69;68.82;95812.19;5008192;28;20041;-87
2022/10/13 08:14:44;;;;;;;64.78;32.70;;;;;;;12.83;68.29;95959.81;5025575;28;20049;-85
2022/10/13 08:17:10;;;;;;;60.63;31.42;;;;;;;12.68;68.38;95936.66;5009900;28;20045;-84
2022/10/13 08:19:44;;;;;;;61.28;32.33;;;;;;;12.67;68.29;95908.47;5004065;28;20144;-87
2022/10/13 08:22:10;;;;;;;58.03;32.10;;;;;;;11.84;67.90;95761.75;5025520;28;20044;-88
2022/10/13 08:24:36;;;;;;;56.75;31.98;;;;;;;12.57;68.08;95885.34;5013199;28;20064;-86
2022/10/13 08:27:02;;;;;;;63.92;33.00;;;;;;;12.54;67.98;95888.53;5007171;28;20061;-87
2022/10/13 08:29:33;;;;;;;57.67;30.20;;;;;;;13.04;67.72;95940.09;5009713;28;20124;-87
2022/10/13 08:31:59;;;;;;;66.03;33.08;;;;;;;12.86;68.13;95917.50;5006952;28;20208;-87
2022/10/13 08:34:25;;;;;;;69.00;31.73;;;;;;;12.18;67.14;95770.75;5023907;28;20550;-87
2022/10/13 08:36:53;;;;;;;68.28;32.30;;;;;;;13.52;67.08;95935.94;5010548;28;20104;-88
2022/10/13 08:39:19;;;;;;;57.55;29.95;;;;;;;12.03;66.44;95679.59;5022178;28;20049;-86
2022/10/13 08:41:44;;;;;;;55.13;30.25;;;;;;;13.82;66.00;95959.00;5004090;28;20051;-85
2022/10/13 08:44:40;;;;;;;59.90;32.22;;;;;;;13.70;65.24;95918.56;5012935;28;20044;-87
2022/10/13 08:47:16;;;;;;;51.85;29.13;;;;;;;13.72;65.06;95909.22;5028901;28;20044;-86
2022/10/13 08:49:44;;;;;;;54.15;28.83;;;;;;;13.38;64.76;95842.50;5023743;28;20050;-85
2022/10/13 08:52:17;;;;;;;51.63;28.75;;;;;;;14.04;64.63;95921.28;5006714;28;20056;-86
2022/10/13 08:54:42;;;;;;;45.08;27.88;;;;;;;13.41;64.11;95815.31;4999564;28;20052;-85
2022/10/13 08:57:09;;;;;;;61.88;29.38;;;;;;;13.76;64.42;95866.78;5008535;28;20034;-85
2022/10/13 08:59:35;;;;;;;50.38;29.08;;;;;;;13.35;63.65;95791.66;5003632;28;20045;-86
2022/10/13 09:02:04;;;;;;;50.75;27.00;;;;;;;13.93;64.00;95880.56;5016469;28;20405;-86
2022/10/13 09:04:39;;;;;;;52.25;28.70;;;;;;;14.29;63.67;95913.09;5023091;28;20051;-86
2022/10/13 09:07:27;;;;;;;51.55;27.95;;;;;;;14.10;63.42;95851.63;4999370;28;20432;-86
2022/10/13 09:09:53;;;;;;;49.83;28.23;;;;;;;14.30;62.81;95877.34;5015768;28;20045;-86
2022/10/13 09:12:23;;;;;;;53.08;28.48;;;;;;;13.85;62.91;95788.63;5035428;28;20049;-86
2022/10/13 09:15:08;;;;;;;48.78;26.42;;;;;;;14.74;62.76;95901.25;5013431;28;20136;-85
2022/10/13 09:17:38;;;;;;;47.10;26.48;;;;;;;14.89;62.61;95894.97;5024758;28;20040;-85
2022/10/13 09:20:23;;;;;;;48.90;26.23;;;;;;;14.93;62.21;95896.81;5023372;28;20045;-87
2022/10/13 09:23:21;;;;;;;52.40;29.27;;;;;;;14.85;62.04;95897.44;5030477;28;20052;-86
2022/10/13 09:25:49;;;;;;;59.75;30.23;;;;;;;14.51;61.61;95805.91;5004293;28;20045;-86
2022/10/13 09:28:18;;;;;;;55.97;29.73;;;;;;;14.95;61.71;95886.63;5012069;28;20067;-86
2022/10/13 09:30:45;;;;;;;49.90;27.17;;;;;;;13.59;60.93;95661.94;5021457;28;20043;-87
2022/10/13 09:33:22;;;;;;;50.33;27.50;;;;;;;15.01;61.57;95874.81;5009791;28;20649;-85
2022/10/13 09:36:01;;;;;;;50.10;25.35;;;;;;;15.15;61.09;95869.59;5010091;28;20176;-87
2022/10/13 09:38:28;;;;;;;52.75;27.70;;;;;;;15.26;60.79;95864.91;5011414;28;20095;-86
2022/10/13 09:41:02;;;;;;;42.97;24.15;;;;;;;15.39;61.22;95872.25;5007858;28;20041;-86
2022/10/13 09:43:57;;;;;;;36.97;22.35;;;;;;;15.55;60.97;95862.97;5027724;28;20096;-85
2022/10/13 09:46:33;;;;;;;35.60;21.50;;;;;;;15.22;60.01;95799.75;5007577;28;20092;-86
2022/10/13 09:49:42;;;;;;;33.33;19.45;;;;;;;16.09;59.42;95856.31;5016515;28;20494;-88
2022/10/13 09:52:10;;;;;;;33.35;18.55;;;;;;;17.05;56.85;95859.22;5001883;28;20148;-86
2022/10/13 09:54:39;;;;;;;37.03;18.40;;;;;;;18.09;54.21;95856.47;5011396;28;20120;-86
2022/10/13 09:57:38;;;;;;;33.63;17.30;;;;;;;18.94;51.99;95854.66;5012360;28;20070;-86
2022/10/13 10:00:06;;;;;;;32.20;16.83;;;;;;;20.28;47.40;95847.50;4989088;28;20507;-86
2022/10/13 10:02:54;;;;;;;29.70;16.27;;;;;;;21.28;44.90;95849.81;5027236;28;20057;-86
2022/10/13 10:05:58;;;;;;;29.98;16.58;;;;;;;22.08;43.35;95841.69;5025748;28;20148;-87
2022/10/13 10:08:52;;;;;;;23.13;13.82;;;;;;;23.14;41.30;95839.97;4958625;28;20073;-86
2022/10/13 10:11:38;;;;;;;24.95;13.25;;;;;;;22.86;39.87;95679.50;5024771;28;20046;-89
2022/10/13 10:14:25;;;;;;;27.50;14.00;;;;;;;24.23;37.82;95826.34;5024227;28;20045;-88
2022/10/13 10:17:48;;;;;;;26.77;14.52;;;;;;;24.28;37.17;95738.56;5031139;28;20045;-87
2022/10/13 10:21:01;;;;;;;29.40;13.57;;;;;;;25.38;35.68;95814.59;5054812;22;20044;-83
2022/10/13 10:23:54;;;;;;;20.48;12.52;;;;;;;25.23;35.17;95761.09;5047926;28;20485;-82
2022/10/13 10:26:28;;;;;;;26.42;13.00;;;;;;;25.83;34.70;95807.84;5045183;28;20233;-81
2022/10/13 10:29:12;;;;;;;28.65;12.70;;;;;;;25.39;34.87;95797.16;5046846;28;20043;-84
2022/10/13 10:31:40;;;;;;;19.90;10.80;;;;;;;25.42;35.12;95809.22;5068109;28;20036;-83
2022/10/13 10:34:27;;;;;;;26.45;11.63;;;;;;;25.32;35.41;95805.94;5048239;28;20047;-82
2022/10/13 10:37:15;;;;;;;19.95;11.52;;;;;;;24.78;35.64;95746.06;5069189;28;20051;-82
2022/10/13 10:40:05;;;;;;;18.73;11.45;;;;;;;24.31;35.90;95739.81;5044533;28;20044;-81
2022/10/13 10:42:48;;;;;;;23.77;11.98;;;;;;;24.15;36.73;95789.31;5052928;28;20626;-81
2022/10/13 10:45:30;;;;;;;22.08;12.15;;;;;;;23.50;36.75;95674.09;5069400;28;20119;-81
2022/10/13 10:48:03;;;;;;;22.50;12.98;;;;;;;24.25;36.58;95779.13;5066089;28;20159;-82
2022/10/13 10:50:30;;;;;;;16.67;11.18;;;;;;;23.85;37.02;95752.84;5067723;28;20779;-81
2022/10/13 10:53:04;;;;;;;20.38;12.38;;;;;;;23.70;36.98;95718.38;5049543;28;20098;-80
2022/10/13 10:55:42;;;;;;;17.73;11.50;;;;;;;23.35;37.79;95712.66;5050742;28;20747;-81
2022/10/13 10:58:17;;;;;;;26.13;12.45;;;;;;;22.98;38.56;95769.53;5072344;28;20789;-80
2022/10/13 11:01:08;;;;;;;18.25;11.90;;;;;;;23.02;39.16;95765.03;5056249;28;20441;-80
2022/10/13 11:03:40;;;;;;;25.92;12.32;;;;;;;23.05;38.83;95715.63;5075930;28;20036;-81
2022/10/13 11:06:12;;;;;;;23.60;12.02;;;;;;;23.46;38.65;95762.50;5077902;28;20212;-83
2022/10/13 11:08:37;;;;;;;21.58;11.52;;;;;;;23.35;38.83;95751.34;5059370;28;20050;-81
2022/10/13 11:11:21;;;;;;;23.65;12.15;;;;;;;23.49;38.21;95744.81;5077816;28;20044;-82
2022/10/13 11:14:04;;;;;;;24.73;12.48;;;;;;;23.65;37.99;95740.28;5053655;28;20043;-81
2022/10/13 11:16:58;;;;;;;27.83;14.55;;;;;;;23.27;38.64;95748.75;5073682;28;20130;-82
2022/10/13 11:19:33;;;;;;;28.52;13.93;;;;;;;22.86;39.08;95707.31;5053028;28;20092;-79
2022/10/13 11:22:01;;;;;;;22.13;13.88;;;;;;;23.00;39.53;95737.53;5034133;28;20075;-80
2022/10/13 11:24:32;;;;;;;27.33;14.40;;;;;;;22.37;40.61;95735.41;5052708;28;20043;-82
2022/10/13 11:27:07;;;;;;;;;;;;;;;22.27;40.58;95731.22;5034415;28;20155;-81
2022/10/13 11:29:45;;;;;;;23.08;13.52;;;;;;;22.32;40.89;95722.91;5041805;28;20419;-80
2022/10/13 11:35:09;;;;;;;19.10;11.95;;;;;;;22.55;40.78;95720.56;5055778;28;20037;-79
2022/10/13 11:37:37;;;;;;;17.85;11.10;;;;;;;22.39;40.22;95704.22;5058743;28;20392;-78